NCAR-RAP Real-Time Weather Data

Output produced by METARs form (26 January 2015  00:16 UTC)
found at http://weather.rap.ucar.edu/surface/
 
Conditions at: K4O4 observed 25 January 2015  23:55 UTC
Temperature: 11.0°C (52°F)
Dewpoint: -1.0°C (30°F) [RH = 43%]
Pressure (altimeter): 30.00 inches Hg (1016.0 mb)
Winds: from the NNW (340 degrees) at 12 MPH (10 knots; 5.2 m/s)
Visibility: 10 or more miles (16+ km)
Ceiling: at least 12,000 feet AGL
Clouds: sky clear below 12,000 feet AGL
Present Weather: automated observation with no human augmentation;
there may or may not be significant weather present at this time
K4O4 252355Z AUTO 34010KT 10SM CLR 11/M01 A3000 RMK AO2